createdAt,value
2017-11-22T00:01:55.624Z,6.00
2017-11-22T00:04:21.782Z,5.90
2017-11-22T00:06:47.866Z,6.00
2017-11-22T00:09:14.043Z,6.00
2017-11-22T00:11:40.153Z,6.00
2017-11-22T00:14:07.115Z,6.00
2017-11-22T00:16:33.982Z,6.00
2017-11-22T00:19:00.090Z,6.00
2017-11-22T00:21:26.214Z,6.10
2017-11-22T00:23:52.412Z,6.10
2017-11-22T00:26:19.552Z,6.10
2017-11-22T00:28:46.526Z,6.10
2017-11-22T00:31:12.957Z,6.10
2017-11-22T00:33:42.536Z,6.20
2017-11-22T00:36:08.803Z,6.20
2017-11-22T00:38:35.358Z,6.20
2017-11-22T00:41:02.363Z,6.20
2017-11-22T00:43:28.615Z,6.20
2017-11-22T00:45:54.830Z,6.30
2017-11-22T00:48:21.038Z,6.30
2017-11-22T00:50:48.030Z,6.30
2017-11-22T00:53:20.736Z,6.30
2017-11-22T00:55:47.135Z,6.30
2017-11-22T00:58:15.400Z,6.40
2017-11-22T01:00:42.393Z,6.40
2017-11-22T01:03:08.738Z,6.40
2017-11-22T01:05:35.778Z,6.40
2017-11-22T01:08:02.059Z,6.40
2017-11-22T01:10:28.615Z,6.40
2017-11-22T01:37:41.070Z,6.70
2017-11-22T11:46:21.266Z,10.10
2017-11-22T11:48:47.426Z,10.40
2017-11-22T11:51:13.645Z,10.40
2017-11-22T11:53:39.787Z,10.40
2017-11-22T11:56:06.002Z,10.50
2017-11-22T11:58:32.902Z,10.40
2017-11-22T12:00:59.053Z,10.40
2017-11-22T12:03:25.183Z,10.50
2017-11-22T12:05:52.297Z,10.40
2017-11-22T12:08:19.610Z,10.50
2017-11-22T12:10:45.767Z,10.50
2017-11-22T12:13:11.899Z,10.50
2017-11-22T12:15:38.816Z,10.50
2017-11-22T12:18:04.918Z,10.50
2017-11-22T12:20:31.793Z,10.50
2017-11-22T12:23:03.982Z,10.50
2017-11-22T12:25:30.154Z,10.50
2017-11-22T12:27:56.306Z,10.50
2017-11-22T12:30:22.698Z,10.60
2017-11-22T12:32:48.787Z,10.60
2017-11-22T12:35:14.990Z,10.70
2017-11-22T12:37:41.142Z,10.70
2017-11-22T12:40:07.252Z,10.70
2017-11-22T15:22:51.730Z,10.80
2017-11-22T15:25:17.829Z,10.50
2017-11-22T15:27:44.020Z,10.50
2017-11-22T15:30:10.255Z,10.40
2017-11-22T15:32:36.366Z,10.40
2017-11-22T15:35:02.468Z,10.40
2017-11-22T15:37:29.333Z,10.30
2017-11-22T15:39:55.491Z,10.30
2017-11-22T15:42:21.682Z,10.40
2017-11-22T15:44:47.806Z,10.40
2017-11-22T15:47:13.952Z,10.40
2017-11-22T15:49:40.854Z,10.30
2017-11-22T15:52:06.949Z,10.30
2017-11-22T15:54:33.074Z,10.30
2017-11-22T15:56:59.178Z,10.30
2017-11-22T15:59:25.277Z,10.30
2017-11-22T16:01:51.538Z,10.30
2017-11-22T16:04:17.700Z,10.30
2017-11-22T16:06:44.518Z,10.30
2017-11-22T16:09:11.479Z,10.30
2017-11-22T16:11:38.345Z,10.30
2017-11-22T16:14:04.461Z,10.20
2017-11-22T16:16:30.599Z,10.40
2017-11-22T16:18:56.910Z,10.30
2017-11-22T16:21:23.016Z,10.30
2017-11-22T16:23:49.167Z,10.30
2017-11-22T16:26:15.291Z,10.30
2017-11-22T16:28:42.400Z,10.30
2017-11-22T16:31:08.540Z,10.30
2017-11-22T16:33:34.695Z,10.30
2017-11-22T16:36:00.835Z,10.30
2017-11-22T16:38:27.014Z,10.30
2017-11-22T16:40:53.101Z,10.30
2017-11-22T16:43:19.386Z,10.30
2017-11-22T16:45:45.572Z,10.20
2017-11-22T16:48:11.787Z,10.20
2017-11-22T16:50:37.990Z,10.20
2017-11-22T16:53:04.846Z,10.10
2017-11-22T16:55:30.954Z,10.10
2017-11-22T16:57:57.067Z,10.00
2017-11-22T17:00:23.199Z,10.00
2017-11-22T17:02:49.333Z,10.00
2017-11-22T17:05:15.487Z,9.90
2017-11-22T17:07:41.627Z,9.90
2017-11-22T17:10:08.008Z,9.90
2017-11-22T17:12:34.233Z,9.90
2017-11-22T17:15:00.362Z,9.90
2017-11-22T17:17:26.493Z,9.90
2017-11-22T17:19:53.070Z,10.00
2017-11-22T17:22:20.422Z,9.90
2017-11-22T17:24:46.688Z,9.90
2017-11-22T17:27:12.836Z,9.90
2017-11-22T17:29:40.260Z,9.90
2017-11-22T17:32:06.380Z,9.90
2017-11-22T17:34:32.482Z,9.90
2017-11-22T17:36:58.694Z,9.90
2017-11-22T17:39:24.809Z,9.90
2017-11-22T17:41:50.900Z,9.90
2017-11-22T17:44:17.055Z,9.90
2017-11-22T17:46:43.183Z,9.90
2017-11-22T17:49:09.358Z,9.80
2017-11-22T17:51:35.587Z,9.70
2017-11-22T17:54:01.731Z,9.60
2017-11-22T17:56:28.029Z,9.60
2017-11-22T17:58:54.209Z,9.50
2017-11-22T18:01:20.327Z,9.40
2017-11-22T18:03:46.424Z,9.40
2017-11-22T18:40:46.534Z,9.40
2017-11-22T18:43:12.734Z,8.70
2017-11-22T18:45:38.882Z,8.60
2017-11-22T18:48:05.163Z,8.50
2017-11-22T18:50:31.425Z,8.50
2017-11-22T18:52:58.292Z,8.50
2017-11-22T18:55:24.411Z,8.50
2017-11-22T18:57:51.518Z,8.40
2017-11-22T19:00:17.612Z,8.30
2017-11-22T19:02:43.762Z,8.20
2017-11-22T19:05:10.649Z,8.20
2017-11-22T19:07:36.744Z,8.20
2017-11-22T19:10:03.619Z,8.10
2017-11-22T19:12:30.546Z,8.10
2017-11-22T19:14:57.421Z,8.00
